sensor_id;sensor_type;location;lat;lon;timestamp;P1;durP1;ratioP1;P2;durP2;ratioP2
15082;SDS011;7640;53.116;6.878;2022-07-23T00:01:30;8.47;;;5.03;;
15082;SDS011;7640;53.116;6.878;2022-07-23T00:03:58;5.80;;;4.80;;
15082;SDS011;7640;53.116;6.878;2022-07-23T00:06:27;6.93;;;4.87;;
15082;SDS011;7640;53.116;6.878;2022-07-23T00:08:56;6.17;;;5.10;;
15082;SDS011;7640;53.116;6.878;2022-07-23T00:11:25;7.27;;;5.47;;
15082;SDS011;7640;53.116;6.878;2022-07-23T00:13:53;8.50;;;5.33;;
15082;SDS011;7640;53.116;6.878;2022-07-23T00:16:22;6.40;;;5.43;;
15082;SDS011;7640;53.116;6.878;2022-07-23T00:18:50;8.50;;;5.53;;
15082;SDS011;7640;53.116;6.878;2022-07-23T00:21:19;7.00;;;5.47;;
15082;SDS011;7640;53.116;6.878;2022-07-23T00:23:47;7.00;;;5.63;;
15082;SDS011;7640;53.116;6.878;2022-07-23T00:26:16;8.57;;;5.60;;
15082;SDS011;7640;53.116;6.878;2022-07-23T00:28:44;7.00;;;5.27;;
15082;SDS011;7640;53.116;6.878;2022-07-23T00:31:12;5.90;;;5.30;;
15082;SDS011;7640;53.116;6.878;2022-07-23T00:33:41;5.90;;;5.27;;
15082;SDS011;7640;53.116;6.878;2022-07-23T00:36:10;9.60;;;6.10;;
15082;SDS011;7640;53.116;6.878;2022-07-23T00:38:38;8.53;;;5.50;;
15082;SDS011;7640;53.116;6.878;2022-07-23T00:41:06;9.63;;;5.60;;
15082;SDS011;7640;53.116;6.878;2022-07-23T00:43:35;8.17;;;4.90;;
15082;SDS011;7640;53.116;6.878;2022-07-23T00:46:04;6.87;;;4.90;;
15082;SDS011;7640;53.116;6.878;2022-07-23T00:48:32;6.07;;;4.77;;
15082;SDS011;7640;53.116;6.878;2022-07-23T00:51:01;7.97;;;4.83;;
15082;SDS011;7640;53.116;6.878;2022-07-23T00:53:29;7.20;;;5.33;;
15082;SDS011;7640;53.116;6.878;2022-07-23T00:55:58;7.40;;;5.10;;
15082;SDS011;7640;53.116;6.878;2022-07-23T00:58:26;6.70;;;4.80;;
15082;SDS011;7640;53.116;6.878;2022-07-23T01:00:56;8.27;;;4.90;;
15082;SDS011;7640;53.116;6.878;2022-07-23T01:03:24;6.50;;;4.77;;
15082;SDS011;7640;53.116;6.878;2022-07-23T01:05:52;7.07;;;5.50;;
15082;SDS011;7640;53.116;6.878;2022-07-23T01:08:20;7.30;;;5.40;;
15082;SDS011;7640;53.116;6.878;2022-07-23T01:10:50;8.83;;;5.80;;
15082;SDS011;7640;53.116;6.878;2022-07-23T01:13:18;7.53;;;5.37;;
15082;SDS011;7640;53.116;6.878;2022-07-23T01:15:47;9.27;;;5.47;;
15082;SDS011;7640;53.116;6.878;2022-07-23T01:18:16;8.47;;;5.70;;
15082;SDS011;7640;53.116;6.878;2022-07-23T01:20:44;7.80;;;5.80;;
15082;SDS011;7640;53.116;6.878;2022-07-23T01:23:14;7.03;;;5.10;;
15082;SDS011;7640;53.116;6.878;2022-07-23T01:25:47;7.60;;;5.47;;
15082;SDS011;7640;53.116;6.878;2022-07-23T01:28:16;8.53;;;5.70;;
15082;SDS011;7640;53.116;6.878;2022-07-23T01:30:44;8.50;;;5.63;;
15082;SDS011;7640;53.116;6.878;2022-07-23T01:33:13;7.20;;;5.43;;
15082;SDS011;7640;53.116;6.878;2022-07-23T01:35:41;6.40;;;5.53;;
15082;SDS011;7640;53.116;6.878;2022-07-23T01:38:09;9.63;;;5.47;;
15082;SDS011;7640;53.116;6.878;2022-07-23T01:40:39;6.63;;;5.53;;
15082;SDS011;7640;53.116;6.878;2022-07-23T01:43:07;7.93;;;5.77;;
15082;SDS011;7640;53.116;6.878;2022-07-23T01:45:37;9.90;;;5.30;;
15082;SDS011;7640;53.116;6.878;2022-07-23T01:48:05;8.20;;;5.97;;
15082;SDS011;7640;53.116;6.878;2022-07-23T01:50:36;6.23;;;5.27;;
15082;SDS011;7640;53.116;6.878;2022-07-23T01:53:04;8.53;;;5.80;;
15082;SDS011;7640;53.116;6.878;2022-07-23T01:55:34;7.93;;;5.00;;
15082;SDS011;7640;53.116;6.878;2022-07-23T01:58:04;8.40;;;5.23;;
15082;SDS011;7640;53.116;6.878;2022-07-23T02:00:32;8.43;;;5.40;;
15082;SDS011;7640;53.116;6.878;2022-07-23T02:03:01;6.03;;;5.30;;
15082;SDS011;7640;53.116;6.878;2022-07-23T02:05:30;8.60;;;5.80;;
15082;SDS011;7640;53.116;6.878;2022-07-23T02:07:59;7.87;;;5.30;;
15082;SDS011;7640;53.116;6.878;2022-07-23T02:10:27;7.50;;;5.50;;
15082;SDS011;7640;53.116;6.878;2022-07-23T02:12:56;6.50;;;5.50;;
15082;SDS011;7640;53.116;6.878;2022-07-23T02:15:25;9.60;;;5.63;;
15082;SDS011;7640;53.116;6.878;2022-07-23T02:17:54;8.23;;;5.33;;
15082;SDS011;7640;53.116;6.878;2022-07-23T02:20:23;7.53;;;5.30;;
15082;SDS011;7640;53.116;6.878;2022-07-23T02:22:51;7.13;;;5.53;;
15082;SDS011;7640;53.116;6.878;2022-07-23T02:25:19;6.97;;;5.20;;
15082;SDS011;7640;53.116;6.878;2022-07-23T02:27:47;8.50;;;5.53;;
15082;SDS011;7640;53.116;6.878;2022-07-23T02:30:15;9.20;;;6.13;;
15082;SDS011;7640;53.116;6.878;2022-07-23T02:32:45;8.47;;;5.53;;
15082;SDS011;7640;53.116;6.878;2022-07-23T02:35:13;8.10;;;5.83;;
15082;SDS011;7640;53.116;6.878;2022-07-23T02:37:41;8.27;;;5.60;;
15082;SDS011;7640;53.116;6.878;2022-07-23T02:40:10;8.57;;;6.07;;
15082;SDS011;7640;53.116;6.878;2022-07-23T02:42:39;10.13;;;6.17;;
15082;SDS011;7640;53.116;6.878;2022-07-23T02:45:07;9.47;;;6.17;;
15082;SDS011;7640;53.116;6.878;2022-07-23T02:47:36;10.13;;;6.10;;
15082;SDS011;7640;53.116;6.878;2022-07-23T02:50:06;11.33;;;6.00;;
15082;SDS011;7640;53.116;6.878;2022-07-23T02:52:35;8.93;;;6.47;;
15082;SDS011;7640;53.116;6.878;2022-07-23T02:55:04;8.03;;;6.07;;
15082;SDS011;7640;53.116;6.878;2022-07-23T02:57:33;7.73;;;6.30;;
15082;SDS011;7640;53.116;6.878;2022-07-23T03:00:02;10.93;;;6.57;;
15082;SDS011;7640;53.116;6.878;2022-07-23T03:02:32;8.53;;;6.93;;
15082;SDS011;7640;53.116;6.878;2022-07-23T03:05:00;8.83;;;6.90;;
15082;SDS011;7640;53.116;6.878;2022-07-23T03:07:32;12.70;;;7.00;;
15082;SDS011;7640;53.116;6.878;2022-07-23T03:10:01;11.30;;;7.47;;
15082;SDS011;7640;53.116;6.878;2022-07-23T03:12:29;12.40;;;7.90;;
15082;SDS011;7640;53.116;6.878;2022-07-23T03:14:57;10.87;;;7.93;;
15082;SDS011;7640;53.116;6.878;2022-07-23T03:17:25;13.10;;;7.53;;
15082;SDS011;7640;53.116;6.878;2022-07-23T03:19:53;12.90;;;7.30;;
15082;SDS011;7640;53.116;6.878;2022-07-23T03:22:21;10.77;;;7.83;;
15082;SDS011;7640;53.116;6.878;2022-07-23T03:24:51;11.80;;;8.40;;
15082;SDS011;7640;53.116;6.878;2022-07-23T03:27:22;12.70;;;8.20;;
15082;SDS011;7640;53.116;6.878;2022-07-23T03:29:52;11.43;;;7.80;;
15082;SDS011;7640;53.116;6.878;2022-07-23T03:32:21;13.53;;;8.40;;
15082;SDS011;7640;53.116;6.878;2022-07-23T03:34:51;10.73;;;7.37;;
15082;SDS011;7640;53.116;6.878;2022-07-23T03:37:20;11.00;;;7.73;;
15082;SDS011;7640;53.116;6.878;2022-07-23T03:39:48;12.43;;;7.83;;
15082;SDS011;7640;53.116;6.878;2022-07-23T03:42:18;14.13;;;8.57;;
15082;SDS011;7640;53.116;6.878;2022-07-23T03:44:46;11.83;;;8.60;;
15082;SDS011;7640;53.116;6.878;2022-07-23T03:47:14;12.83;;;8.20;;
15082;SDS011;7640;53.116;6.878;2022-07-23T03:49:43;13.50;;;7.77;;
15082;SDS011;7640;53.116;6.878;2022-07-23T03:52:11;9.90;;;7.77;;
15082;SDS011;7640;53.116;6.878;2022-07-23T03:54:39;13.07;;;8.17;;
15082;SDS011;7640;53.116;6.878;2022-07-23T03:57:09;10.03;;;8.10;;
15082;SDS011;7640;53.116;6.878;2022-07-23T03:59:37;10.60;;;7.83;;
15082;SDS011;7640;53.116;6.878;2022-07-23T04:02:05;10.27;;;7.70;;
15082;SDS011;7640;53.116;6.878;2022-07-23T04:04:33;13.17;;;8.07;;
15082;SDS011;7640;53.116;6.878;2022-07-23T04:07:01;10.07;;;7.27;;
15082;SDS011;7640;53.116;6.878;2022-07-23T04:09:30;11.00;;;7.90;;
15082;SDS011;7640;53.116;6.878;2022-07-23T04:11:59;11.20;;;7.53;;
15082;SDS011;7640;53.116;6.878;2022-07-23T04:14:28;11.97;;;7.53;;
15082;SDS011;7640;53.116;6.878;2022-07-23T04:16:56;12.07;;;7.77;;
15082;SDS011;7640;53.116;6.878;2022-07-23T04:19:25;10.87;;;6.93;;
15082;SDS011;7640;53.116;6.878;2022-07-23T04:21:53;10.90;;;7.47;;
15082;SDS011;7640;53.116;6.878;2022-07-23T04:24:21;13.23;;;7.03;;
15082;SDS011;7640;53.116;6.878;2022-07-23T04:26:49;11.13;;;6.93;;
15082;SDS011;7640;53.116;6.878;2022-07-23T04:29:18;11.37;;;7.03;;
15082;SDS011;7640;53.116;6.878;2022-07-23T04:31:47;11.60;;;7.10;;
15082;SDS011;7640;53.116;6.878;2022-07-23T04:34:15;11.77;;;6.93;;
15082;SDS011;7640;53.116;6.878;2022-07-23T04:36:44;10.97;;;7.03;;
15082;SDS011;7640;53.116;6.878;2022-07-23T04:39:12;9.13;;;6.50;;
15082;SDS011;7640;53.116;6.878;2022-07-23T04:41:40;11.20;;;6.90;;
15082;SDS011;7640;53.116;6.878;2022-07-23T04:44:08;9.60;;;6.57;;
15082;SDS011;7640;53.116;6.878;2022-07-23T04:46:36;11.37;;;7.07;;
15082;SDS011;7640;53.116;6.878;2022-07-23T04:49:06;9.27;;;6.43;;
15082;SDS011;7640;53.116;6.878;2022-07-23T04:51:34;10.73;;;6.53;;
15082;SDS011;7640;53.116;6.878;2022-07-23T04:54:02;9.23;;;7.00;;
15082;SDS011;7640;53.116;6.878;2022-07-23T04:56:30;9.30;;;6.60;;
15082;SDS011;7640;53.116;6.878;2022-07-23T04:58:59;8.27;;;6.40;;
15082;SDS011;7640;53.116;6.878;2022-07-23T05:01:28;9.83;;;7.20;;
15082;SDS011;7640;53.116;6.878;2022-07-23T05:03:57;9.17;;;6.50;;
15082;SDS011;7640;53.116;6.878;2022-07-23T05:06:26;12.53;;;6.57;;
15082;SDS011;7640;53.116;6.878;2022-07-23T05:08:54;9.53;;;6.10;;
15082;SDS011;7640;53.116;6.878;2022-07-23T05:11:23;9.37;;;6.03;;
15082;SDS011;7640;53.116;6.878;2022-07-23T05:13:52;9.53;;;6.33;;
15082;SDS011;7640;53.116;6.878;2022-07-23T05:16:21;9.77;;;6.37;;
15082;SDS011;7640;53.116;6.878;2022-07-23T05:18:49;10.40;;;6.37;;
15082;SDS011;7640;53.116;6.878;2022-07-23T05:21:17;9.20;;;6.63;;
15082;SDS011;7640;53.116;6.878;2022-07-23T05:23:47;8.70;;;6.13;;
15082;SDS011;7640;53.116;6.878;2022-07-23T05:26:15;8.67;;;6.10;;
15082;SDS011;7640;53.116;6.878;2022-07-23T05:28:43;11.40;;;6.30;;
15082;SDS011;7640;53.116;6.878;2022-07-23T05:31:15;7.87;;;5.80;;
15082;SDS011;7640;53.116;6.878;2022-07-23T05:33:43;9.00;;;6.50;;
15082;SDS011;7640;53.116;6.878;2022-07-23T05:36:12;9.23;;;6.17;;
15082;SDS011;7640;53.116;6.878;2022-07-23T05:38:40;6.57;;;5.43;;
15082;SDS011;7640;53.116;6.878;2022-07-23T05:41:10;7.57;;;5.70;;
15082;SDS011;7640;53.116;6.878;2022-07-23T05:43:38;8.67;;;6.00;;
15082;SDS011;7640;53.116;6.878;2022-07-23T05:46:07;8.53;;;5.60;;
15082;SDS011;7640;53.116;6.878;2022-07-23T05:48:35;9.97;;;5.90;;
15082;SDS011;7640;53.116;6.878;2022-07-23T05:51:04;9.00;;;5.50;;
15082;SDS011;7640;53.116;6.878;2022-07-23T05:53:33;9.40;;;5.87;;
15082;SDS011;7640;53.116;6.878;2022-07-23T05:56:01;7.13;;;5.00;;
15082;SDS011;7640;53.116;6.878;2022-07-23T05:58:31;7.13;;;5.83;;
15082;SDS011;7640;53.116;6.878;2022-07-23T06:00:59;7.07;;;4.90;;
15082;SDS011;7640;53.116;6.878;2022-07-23T06:03:27;6.43;;;4.80;;
15082;SDS011;7640;53.116;6.878;2022-07-23T06:05:56;5.47;;;4.50;;
15082;SDS011;7640;53.116;6.878;2022-07-23T06:08:24;6.87;;;4.23;;
15082;SDS011;7640;53.116;6.878;2022-07-23T06:10:53;7.43;;;4.77;;
15082;SDS011;7640;53.116;6.878;2022-07-23T06:13:21;6.70;;;4.60;;
15082;SDS011;7640;53.116;6.878;2022-07-23T06:15:50;6.50;;;3.83;;
15082;SDS011;7640;53.116;6.878;2022-07-23T06:18:19;5.17;;;3.90;;
15082;SDS011;7640;53.116;6.878;2022-07-23T06:20:47;5.73;;;3.97;;
15082;SDS011;7640;53.116;6.878;2022-07-23T06:23:17;5.83;;;3.87;;
15082;SDS011;7640;53.116;6.878;2022-07-23T06:25:46;5.27;;;4.00;;
15082;SDS011;7640;53.116;6.878;2022-07-23T06:28:14;4.53;;;3.37;;
15082;SDS011;7640;53.116;6.878;2022-07-23T06:30:42;6.17;;;3.30;;
15082;SDS011;7640;53.116;6.878;2022-07-23T06:33:11;5.07;;;3.70;;
15082;SDS011;7640;53.116;6.878;2022-07-23T06:35:40;5.57;;;3.63;;
15082;SDS011;7640;53.116;6.878;2022-07-23T06:38:08;3.70;;;3.10;;
15082;SDS011;7640;53.116;6.878;2022-07-23T06:40:37;5.70;;;3.83;;
15082;SDS011;7640;53.116;6.878;2022-07-23T06:43:05;6.40;;;3.60;;
15082;SDS011;7640;53.116;6.878;2022-07-23T06:45:33;3.30;;;3.00;;
15082;SDS011;7640;53.116;6.878;2022-07-23T06:48:01;3.40;;;3.03;;
15082;SDS011;7640;53.116;6.878;2022-07-23T06:50:31;3.17;;;2.77;;
15082;SDS011;7640;53.116;6.878;2022-07-23T06:52:59;3.93;;;3.33;;
15082;SDS011;7640;53.116;6.878;2022-07-23T06:55:28;5.20;;;3.20;;
15082;SDS011;7640;53.116;6.878;2022-07-23T06:57:58;3.97;;;3.40;;
15082;SDS011;7640;53.116;6.878;2022-07-23T07:00:26;5.07;;;2.97;;
15082;SDS011;7640;53.116;6.878;2022-07-23T07:02:54;3.57;;;2.80;;
15082;SDS011;7640;53.116;6.878;2022-07-23T07:05:22;6.23;;;2.83;;
15082;SDS011;7640;53.116;6.878;2022-07-23T07:07:55;5.27;;;3.00;;
15082;SDS011;7640;53.116;6.878;2022-07-23T07:10:23;3.93;;;2.70;;
15082;SDS011;7640;53.116;6.878;2022-07-23T07:12:52;4.23;;;2.73;;
15082;SDS011;7640;53.116;6.878;2022-07-23T07:15:20;4.67;;;2.63;;
15082;SDS011;7640;53.116;6.878;2022-07-23T07:17:48;5.17;;;2.40;;
15082;SDS011;7640;53.116;6.878;2022-07-23T07:20:16;4.10;;;2.07;;
15082;SDS011;7640;53.116;6.878;2022-07-23T07:22:45;2.50;;;2.20;;
15082;SDS011;7640;53.116;6.878;2022-07-23T07:25:14;4.00;;;2.13;;
15082;SDS011;7640;53.116;6.878;2022-07-23T07:27:43;2.10;;;1.90;;
15082;SDS011;7640;53.116;6.878;2022-07-23T07:30:11;4.60;;;2.63;;
15082;SDS011;7640;53.116;6.878;2022-07-23T07:32:40;4.03;;;2.00;;
15082;SDS011;7640;53.116;6.878;2022-07-23T07:35:24;3.03;;;1.83;;
15082;SDS011;7640;53.116;6.878;2022-07-23T07:37:53;2.93;;;1.40;;
15082;SDS011;7640;53.116;6.878;2022-07-23T07:40:23;4.30;;;1.27;;
15082;SDS011;7640;53.116;6.878;2022-07-23T07:42:59;2.73;;;1.20;;
15082;SDS011;7640;53.116;6.878;2022-07-23T07:45:27;1.20;;;1.00;;
15082;SDS011;7640;53.116;6.878;2022-07-23T07:47:56;2.03;;;1.20;;
15082;SDS011;7640;53.116;6.878;2022-07-23T07:50:25;1.27;;;0.80;;
15082;SDS011;7640;53.116;6.878;2022-07-23T07:52:53;2.30;;;0.90;;
15082;SDS011;7640;53.116;6.878;2022-07-23T07:55:23;2.13;;;1.13;;
15082;SDS011;7640;53.116;6.878;2022-07-23T07:57:51;2.43;;;0.90;;
15082;SDS011;7640;53.116;6.878;2022-07-23T08:00:19;1.10;;;1.00;;
15082;SDS011;7640;53.116;6.878;2022-07-23T08:02:48;1.70;;;1.20;;
15082;SDS011;7640;53.116;6.878;2022-07-23T08:05:23;3.17;;;1.27;;
15082;SDS011;7640;53.116;6.878;2022-07-23T08:07:54;1.33;;;0.80;;
15082;SDS011;7640;53.116;6.878;2022-07-23T08:10:25;2.40;;;1.07;;
15082;SDS011;7640;53.116;6.878;2022-07-23T08:12:55;1.03;;;0.90;;
15082;SDS011;7640;53.116;6.878;2022-07-23T08:15:25;2.80;;;1.03;;
15082;SDS011;7640;53.116;6.878;2022-07-23T08:17:54;1.20;;;0.90;;
15082;SDS011;7640;53.116;6.878;2022-07-23T08:20:24;1.00;;;0.80;;
15082;SDS011;7640;53.116;6.878;2022-07-23T08:22:55;1.60;;;0.97;;
15082;SDS011;7640;53.116;6.878;2022-07-23T08:25:28;1.47;;;0.90;;
15082;SDS011;7640;53.116;6.878;2022-07-23T08:27:58;0.83;;;0.83;;
15082;SDS011;7640;53.116;6.878;2022-07-23T08:30:28;1.90;;;0.90;;
15082;SDS011;7640;53.116;6.878;2022-07-23T08:32:57;1.00;;;0.90;;
15082;SDS011;7640;53.116;6.878;2022-07-23T08:35:28;1.10;;;1.00;;
15082;SDS011;7640;53.116;6.878;2022-07-23T08:37:58;1.40;;;0.87;;
15082;SDS011;7640;53.116;6.878;2022-07-23T08:40:31;0.83;;;0.80;;
15082;SDS011;7640;53.116;6.878;2022-07-23T08:43:07;1.00;;;0.90;;
15082;SDS011;7640;53.116;6.878;2022-07-23T08:45:37;1.20;;;0.90;;
15082;SDS011;7640;53.116;6.878;2022-07-23T08:48:12;1.57;;;0.87;;
15082;SDS011;7640;53.116;6.878;2022-07-23T08:50:43;0.90;;;0.90;;
15082;SDS011;7640;53.116;6.878;2022-07-23T08:53:14;1.43;;;0.90;;
15082;SDS011;7640;53.116;6.878;2022-07-23T08:55:44;0.70;;;0.70;;
15082;SDS011;7640;53.116;6.878;2022-07-23T08:58:15;1.20;;;1.10;;
15082;SDS011;7640;53.116;6.878;2022-07-23T09:00:44;1.37;;;0.97;;
15082;SDS011;7640;53.116;6.878;2022-07-23T09:03:15;2.40;;;1.00;;
15082;SDS011;7640;53.116;6.878;2022-07-23T09:05:45;1.60;;;0.97;;
15082;SDS011;7640;53.116;6.878;2022-07-23T09:08:14;1.90;;;1.00;;
15082;SDS011;7640;53.116;6.878;2022-07-23T09:10:49;1.67;;;1.03;;
15082;SDS011;7640;53.116;6.878;2022-07-23T09:13:27;1.20;;;0.93;;
15082;SDS011;7640;53.116;6.878;2022-07-23T09:15:59;1.77;;;1.00;;
15082;SDS011;7640;53.116;6.878;2022-07-23T09:18:35;2.00;;;0.90;;
15082;SDS011;7640;53.116;6.878;2022-07-23T09:21:10;1.73;;;0.90;;
15082;SDS011;7640;53.116;6.878;2022-07-23T09:23:48;2.00;;;1.20;;
15082;SDS011;7640;53.116;6.878;2022-07-23T09:26:21;1.63;;;0.80;;
15082;SDS011;7640;53.116;6.878;2022-07-23T09:29:04;1.77;;;0.90;;
15082;SDS011;7640;53.116;6.878;2022-07-23T09:31:44;2.17;;;0.93;;
15082;SDS011;7640;53.116;6.878;2022-07-23T09:34:18;1.43;;;1.00;;
15082;SDS011;7640;53.116;6.878;2022-07-23T09:36:50;1.10;;;1.00;;
15082;SDS011;7640;53.116;6.878;2022-07-23T09:39:27;1.63;;;1.00;;
15082;SDS011;7640;53.116;6.878;2022-07-23T09:41:58;2.87;;;1.10;;
15082;SDS011;7640;53.116;6.878;2022-07-23T09:44:42;1.50;;;1.30;;
15082;SDS011;7640;53.116;6.878;2022-07-23T09:47:11;1.93;;;0.90;;
15082;SDS011;7640;53.116;6.878;2022-07-23T09:49:40;1.13;;;0.93;;
15082;SDS011;7640;53.116;6.878;2022-07-23T09:52:25;1.10;;;0.80;;
15082;SDS011;7640;53.116;6.878;2022-07-23T09:55:01;2.03;;;0.70;;
15082;SDS011;7640;53.116;6.878;2022-07-23T09:57:34;1.80;;;0.67;;
15082;SDS011;7640;53.116;6.878;2022-07-23T10:00:05;1.73;;;0.80;;
15082;SDS011;7640;53.116;6.878;2022-07-23T10:02:36;2.23;;;0.70;;
15082;SDS011;7640;53.116;6.878;2022-07-23T10:05:06;2.43;;;0.90;;
15082;SDS011;7640;53.116;6.878;2022-07-23T10:07:37;0.90;;;0.70;;
15082;SDS011;7640;53.116;6.878;2022-07-23T10:10:08;1.80;;;0.80;;
15082;SDS011;7640;53.116;6.878;2022-07-23T10:12:40;1.35;;;0.77;;
15082;SDS011;7640;53.116;6.878;2022-07-23T10:15:34;3.13;;;1.08;;
15082;SDS011;7640;53.116;6.878;2022-07-23T10:18:03;2.15;;;0.85;;
15082;SDS011;7640;53.116;6.878;2022-07-23T10:20:32;1.70;;;0.75;;
15082;SDS011;7640;53.116;6.878;2022-07-23T10:23:02;1.45;;;0.70;;
15082;SDS011;7640;53.116;6.878;2022-07-23T10:25:41;2.35;;;0.80;;
15082;SDS011;7640;53.116;6.878;2022-07-23T10:28:21;0.80;;;0.80;;
15082;SDS011;7640;53.116;6.878;2022-07-23T10:31:28;1.00;;;0.90;;
15082;SDS011;7640;53.116;6.878;2022-07-23T10:34:25;1.80;;;1.20;;
15082;SDS011;7640;53.116;6.878;2022-07-23T10:37:07;2.85;;;1.23;;
15082;SDS011;7640;53.116;6.878;2022-07-23T10:39:47;1.10;;;1.00;;
15082;SDS011;7640;53.116;6.878;2022-07-23T10:42:16;1.50;;;1.10;;
15082;SDS011;7640;53.116;6.878;2022-07-23T10:44:46;2.72;;;1.02;;
15082;SDS011;7640;53.116;6.878;2022-07-23T10:47:20;0.90;;;0.90;;
15082;SDS011;7640;53.116;6.878;2022-07-23T10:50:22;2.28;;;1.15;;
15082;SDS011;7640;53.116;6.878;2022-07-23T10:53:13;3.20;;;1.73;;
15082;SDS011;7640;53.116;6.878;2022-07-23T10:55:52;2.50;;;1.05;;
15082;SDS011;7640;53.116;6.878;2022-07-23T10:58:45;6.22;;;1.30;;
15082;SDS011;7640;53.116;6.878;2022-07-23T11:01:32;1.58;;;1.20;;
15082;SDS011;7640;53.116;6.878;2022-07-23T11:04:03;1.77;;;1.08;;
15082;SDS011;7640;53.116;6.878;2022-07-23T11:09:47;6.40;;;1.30;;
15082;SDS011;7640;53.116;6.878;2022-07-23T11:12:31;1.30;;;1.10;;
15082;SDS011;7640;53.116;6.878;2022-07-23T11:15:04;2.65;;;1.33;;
15082;SDS011;7640;53.116;6.878;2022-07-23T11:17:39;1.88;;;1.10;;
15082;SDS011;7640;53.116;6.878;2022-07-23T11:20:27;2.35;;;1.13;;
15082;SDS011;7640;53.116;6.878;2022-07-23T11:22:55;1.52;;;1.25;;
15082;SDS011;7640;53.116;6.878;2022-07-23T11:25:30;2.05;;;1.30;;
15082;SDS011;7640;53.116;6.878;2022-07-23T11:28:08;2.88;;;1.30;;
15082;SDS011;7640;53.116;6.878;2022-07-23T11:30:43;2.75;;;1.15;;
15082;SDS011;7640;53.116;6.878;2022-07-23T11:33:17;2.80;;;1.10;;
15082;SDS011;7640;53.116;6.878;2022-07-23T11:35:50;1.17;;;1.00;;
15082;SDS011;7640;53.116;6.878;2022-07-23T11:38:30;2.65;;;1.25;;
15082;SDS011;7640;53.116;6.878;2022-07-23T11:40:59;1.33;;;1.15;;
15082;SDS011;7640;53.116;6.878;2022-07-23T11:43:28;1.77;;;1.17;;
15082;SDS011;7640;53.116;6.878;2022-07-23T11:45:57;1.95;;;0.90;;
15082;SDS011;7640;53.116;6.878;2022-07-23T11:48:29;1.83;;;1.20;;
15082;SDS011;7640;53.116;6.878;2022-07-23T11:51:06;2.63;;;1.10;;
15082;SDS011;7640;53.116;6.878;2022-07-23T11:53:34;2.65;;;1.10;;
15082;SDS011;7640;53.116;6.878;2022-07-23T11:56:03;2.67;;;1.25;;
15082;SDS011;7640;53.116;6.878;2022-07-23T11:58:33;2.70;;;1.17;;
15082;SDS011;7640;53.116;6.878;2022-07-23T12:01:02;1.17;;;1.00;;
15082;SDS011;7640;53.116;6.878;2022-07-23T12:03:32;1.85;;;0.93;;
15082;SDS011;7640;53.116;6.878;2022-07-23T12:06:01;1.50;;;1.00;;
15082;SDS011;7640;53.116;6.878;2022-07-23T12:08:29;3.05;;;1.33;;
15082;SDS011;7640;53.116;6.878;2022-07-23T12:10:57;1.40;;;1.08;;
15082;SDS011;7640;53.116;6.878;2022-07-23T12:13:26;3.60;;;1.30;;
15082;SDS011;7640;53.116;6.878;2022-07-23T12:15:56;1.27;;;1.05;;
15082;SDS011;7640;53.116;6.878;2022-07-23T12:18:25;3.63;;;1.52;;
15082;SDS011;7640;53.116;6.878;2022-07-23T12:20:56;3.33;;;1.08;;
15082;SDS011;7640;53.116;6.878;2022-07-23T12:23:30;2.13;;;1.20;;
15082;SDS011;7640;53.116;6.878;2022-07-23T12:26:00;2.08;;;1.80;;
15082;SDS011;7640;53.116;6.878;2022-07-23T12:28:30;3.00;;;1.40;;
15082;SDS011;7640;53.116;6.878;2022-07-23T12:31:01;2.80;;;1.42;;
15082;SDS011;7640;53.116;6.878;2022-07-23T12:33:30;2.40;;;1.30;;
15082;SDS011;7640;53.116;6.878;2022-07-23T12:36:02;2.13;;;1.40;;
15082;SDS011;7640;53.116;6.878;2022-07-23T12:38:36;1.63;;;1.42;;
15082;SDS011;7640;53.116;6.878;2022-07-23T12:41:06;2.53;;;1.50;;
15082;SDS011;7640;53.116;6.878;2022-07-23T12:43:36;2.95;;;1.67;;
15082;SDS011;7640;53.116;6.878;2022-07-23T12:46:06;1.95;;;1.35;;
15082;SDS011;7640;53.116;6.878;2022-07-23T12:48:38;2.45;;;1.50;;
15082;SDS011;7640;53.116;6.878;2022-07-23T12:51:21;3.83;;;1.50;;
15082;SDS011;7640;53.116;6.878;2022-07-23T12:53:52;1.65;;;1.40;;
15082;SDS011;7640;53.116;6.878;2022-07-23T12:56:22;1.95;;;1.33;;
15082;SDS011;7640;53.116;6.878;2022-07-23T12:58:56;3.17;;;1.08;;
15082;SDS011;7640;53.116;6.878;2022-07-23T13:01:28;2.97;;;1.38;;
15082;SDS011;7640;53.116;6.878;2022-07-23T13:04:00;2.38;;;1.58;;
15082;SDS011;7640;53.116;6.878;2022-07-23T13:06:41;1.83;;;1.40;;
15082;SDS011;7640;53.116;6.878;2022-07-23T13:09:11;1.85;;;1.55;;
15082;SDS011;7640;53.116;6.878;2022-07-23T13:11:43;1.75;;;1.30;;
15082;SDS011;7640;53.116;6.878;2022-07-23T13:14:13;1.52;;;1.10;;
15082;SDS011;7640;53.116;6.878;2022-07-23T13:16:43;1.40;;;1.20;;
15082;SDS011;7640;53.116;6.878;2022-07-23T13:19:14;2.08;;;1.45;;
15082;SDS011;7640;53.116;6.878;2022-07-23T13:21:45;2.28;;;1.40;;
15082;SDS011;7640;53.116;6.878;2022-07-23T13:24:14;1.30;;;1.17;;
15082;SDS011;7640;53.116;6.878;2022-07-23T13:26:42;1.92;;;1.33;;
15082;SDS011;7640;53.116;6.878;2022-07-23T13:29:13;2.33;;;1.30;;
15082;SDS011;7640;53.116;6.878;2022-07-23T13:31:44;1.60;;;1.25;;
15082;SDS011;7640;53.116;6.878;2022-07-23T13:34:14;1.10;;;1.00;;
15082;SDS011;7640;53.116;6.878;2022-07-23T13:36:42;3.22;;;1.55;;
15082;SDS011;7640;53.116;6.878;2022-07-23T13:39:12;3.33;;;1.50;;
15082;SDS011;7640;53.116;6.878;2022-07-23T13:41:40;3.72;;;1.30;;
15082;SDS011;7640;53.116;6.878;2022-07-23T13:44:15;2.97;;;1.20;;
15082;SDS011;7640;53.116;6.878;2022-07-23T13:46:45;1.20;;;1.10;;
15082;SDS011;7640;53.116;6.878;2022-07-23T13:49:13;2.58;;;1.33;;
15082;SDS011;7640;53.116;6.878;2022-07-23T13:51:42;2.92;;;1.10;;
15082;SDS011;7640;53.116;6.878;2022-07-23T13:54:10;2.05;;;1.20;;
15082;SDS011;7640;53.116;6.878;2022-07-23T13:56:40;3.20;;;1.38;;
15082;SDS011;7640;53.116;6.878;2022-07-23T13:59:08;1.73;;;1.10;;
15082;SDS011;7640;53.116;6.878;2022-07-23T14:01:37;2.45;;;1.17;;
15082;SDS011;7640;53.116;6.878;2022-07-23T14:04:25;3.47;;;1.35;;
15082;SDS011;7640;53.116;6.878;2022-07-23T14:06:53;2.85;;;1.33;;
15082;SDS011;7640;53.116;6.878;2022-07-23T14:09:23;3.95;;;1.50;;
15082;SDS011;7640;53.116;6.878;2022-07-23T14:11:52;2.17;;;1.00;;
15082;SDS011;7640;53.116;6.878;2022-07-23T14:14:20;1.67;;;1.35;;
15082;SDS011;7640;53.116;6.878;2022-07-23T14:16:48;1.60;;;1.10;;
15082;SDS011;7640;53.116;6.878;2022-07-23T14:19:17;1.40;;;1.20;;
15082;SDS011;7640;53.116;6.878;2022-07-23T14:21:45;1.73;;;1.20;;
15082;SDS011;7640;53.116;6.878;2022-07-23T14:24:15;1.73;;;1.20;;
15082;SDS011;7640;53.116;6.878;2022-07-23T14:26:45;1.40;;;1.30;;
15082;SDS011;7640;53.116;6.878;2022-07-23T14:29:13;4.05;;;1.25;;
15082;SDS011;7640;53.116;6.878;2022-07-23T14:31:42;2.13;;;1.00;;
15082;SDS011;7640;53.116;6.878;2022-07-23T14:34:13;1.33;;;1.00;;
15082;SDS011;7640;53.116;6.878;2022-07-23T14:36:41;2.10;;;1.17;;
15082;SDS011;7640;53.116;6.878;2022-07-23T14:39:09;2.40;;;1.17;;
15082;SDS011;7640;53.116;6.878;2022-07-23T14:41:38;2.85;;;1.10;;
15082;SDS011;7640;53.116;6.878;2022-07-23T14:44:08;2.25;;;1.27;;
15082;SDS011;7640;53.116;6.878;2022-07-23T14:46:36;1.95;;;1.25;;
15082;SDS011;7640;53.116;6.878;2022-07-23T14:49:05;1.17;;;0.82;;
15082;SDS011;7640;53.116;6.878;2022-07-23T14:51:34;5.05;;;1.30;;
15082;SDS011;7640;53.116;6.878;2022-07-23T14:54:03;2.15;;;1.05;;
15082;SDS011;7640;53.116;6.878;2022-07-23T14:56:32;3.53;;;1.10;;
15082;SDS011;7640;53.116;6.878;2022-07-23T14:59:02;1.42;;;0.95;;
15082;SDS011;7640;53.116;6.878;2022-07-23T15:01:33;1.50;;;1.08;;
15082;SDS011;7640;53.116;6.878;2022-07-23T15:04:02;1.80;;;1.10;;
15082;SDS011;7640;53.116;6.878;2022-07-23T15:06:51;1.50;;;1.00;;
15082;SDS011;7640;53.116;6.878;2022-07-23T15:09:20;1.67;;;1.10;;
15082;SDS011;7640;53.116;6.878;2022-07-23T15:11:48;2.33;;;1.15;;
15082;SDS011;7640;53.116;6.878;2022-07-23T15:14:16;1.27;;;0.88;;
15082;SDS011;7640;53.116;6.878;2022-07-23T15:16:55;1.80;;;0.90;;
15082;SDS011;7640;53.116;6.878;2022-07-23T15:19:24;1.92;;;0.98;;
15082;SDS011;7640;53.116;6.878;2022-07-23T15:21:56;1.80;;;1.20;;
15082;SDS011;7640;53.116;6.878;2022-07-23T15:24:27;1.20;;;1.10;;